createdAt,value
2023-03-03T00:02:30.551Z,22.23
2023-03-03T00:05:34.523Z,22.13
2023-03-03T00:08:37.702Z,23.40
2023-03-03T00:11:41.373Z,22.95
2023-03-03T00:14:43.824Z,24.45
2023-03-03T00:17:48.171Z,22.92
2023-03-03T00:20:54.446Z,24.80
2023-03-03T00:24:41.511Z,21.73
2023-03-03T00:27:43.875Z,23.85
2023-03-03T00:30:46.323Z,23.98
2023-03-03T00:33:54.951Z,24.15
2023-03-03T00:40:22.108Z,22.58
2023-03-03T00:43:28.365Z,25.00
2023-03-03T00:46:31.123Z,22.85
2023-03-03T00:49:33.883Z,22.85
2023-03-03T00:53:01.346Z,21.30
2023-03-03T00:56:03.511Z,20.70
2023-03-03T00:59:08.032Z,19.90
2023-03-03T01:02:10.472Z,20.90
2023-03-03T01:05:17.725Z,19.23
2023-03-03T01:08:22.720Z,20.67
2023-03-03T01:11:28.692Z,19.45
2023-03-03T01:14:32.424Z,21.27
2023-03-03T01:17:36.873Z,21.05
2023-03-03T01:20:39.446Z,20.55
2023-03-03T01:23:41.604Z,22.30
2023-03-03T01:26:46.839Z,20.65
2023-03-03T01:29:48.878Z,20.63
2023-03-03T01:32:50.908Z,20.58
2023-03-03T01:35:57.111Z,20.98
2023-03-03T01:39:00.564Z,19.35
2023-03-03T01:42:04.132Z,18.40
2023-03-03T01:45:31.457Z,19.33
2023-03-03T01:48:44.930Z,19.45
2023-03-03T01:51:54.193Z,18.48
2023-03-03T01:55:00.968Z,18.42
2023-03-03T01:58:11.380Z,18.67
2023-03-03T02:01:25.031Z,18.92
2023-03-03T02:04:27.778Z,20.70
2023-03-03T02:07:31.926Z,18.08
2023-03-03T02:10:36.146Z,18.10
2023-03-03T02:13:42.562Z,17.52
2023-03-03T02:16:45.071Z,20.50
2023-03-03T02:20:11.215Z,19.33
2023-03-03T02:23:38.442Z,19.50
2023-03-03T02:26:42.196Z,20.58
2023-03-03T02:29:45.987Z,18.88
2023-03-03T02:32:48.418Z,20.80
2023-03-03T02:35:52.077Z,22.10
2023-03-03T02:39:20.857Z,19.92
2023-03-03T02:42:29.989Z,21.40
2023-03-03T02:45:33.886Z,22.65
2023-03-03T02:48:36.027Z,19.77
2023-03-03T02:51:38.917Z,22.02
2023-03-03T02:54:41.121Z,22.52
2023-03-03T02:57:43.602Z,21.08
2023-03-03T03:00:48.250Z,22.13
2023-03-03T03:03:54.175Z,24.42
2023-03-03T03:06:58.430Z,23.25
2023-03-03T03:10:02.460Z,22.52
2023-03-03T03:13:06.971Z,23.83
2023-03-03T03:16:09.591Z,22.55
2023-03-03T03:19:11.977Z,22.95
2023-03-03T03:22:15.564Z,24.65
2023-03-03T03:25:19.530Z,24.42
2023-03-03T03:28:23.504Z,23.23
2023-03-03T03:31:26.076Z,24.35
2023-03-03T03:34:28.123Z,23.98
2023-03-03T03:37:32.024Z,23.30
2023-03-03T03:40:34.190Z,23.67
2023-03-03T03:43:36.484Z,23.20
2023-03-03T03:46:39.887Z,21.85
2023-03-03T03:49:42.783Z,22.58
2023-03-03T03:52:45.041Z,22.38
2023-03-03T03:55:48.307Z,23.23
2023-03-03T03:58:52.016Z,22.38
2023-03-03T04:01:54.090Z,23.58
2023-03-03T04:05:00.567Z,22.95
2023-03-03T04:08:03.744Z,22.40
2023-03-03T04:11:05.909Z,23.10
2023-03-03T04:14:08.129Z,23.80
2023-03-03T04:17:22.577Z,24.63
2023-03-03T04:20:24.743Z,25.60
2023-03-03T04:23:29.113Z,28.10
2023-03-03T04:26:32.037Z,25.77
2023-03-03T04:29:36.374Z,28.13
2023-03-03T04:32:38.972Z,28.83
2023-03-03T04:35:45.743Z,25.55
2023-03-03T04:38:48.030Z,24.65
2023-03-03T04:41:50.494Z,25.38
2023-03-03T04:44:53.746Z,24.48
2023-03-03T04:47:56.134Z,26.58
2023-03-03T04:50:58.477Z,27.25
2023-03-03T04:54:03.111Z,28.02
2023-03-03T04:57:05.437Z,25.20
2023-03-03T05:00:09.026Z,23.77
2023-03-03T05:03:13.040Z,21.52
2023-03-03T05:06:20.934Z,22.48
2023-03-03T05:09:24.979Z,21.05
2023-03-03T05:12:30.246Z,21.95
2023-03-03T05:15:33.060Z,21.27
2023-03-03T05:18:35.216Z,22.55
2023-03-03T05:21:38.025Z,22.20
2023-03-03T05:24:40.212Z,23.25
2023-03-03T05:27:44.176Z,22.15
2023-03-03T05:30:46.550Z,21.73
2023-03-03T05:33:48.689Z,23.70
2023-03-03T05:36:51.066Z,22.42
2023-03-03T05:39:53.160Z,22.67
2023-03-03T05:42:55.478Z,23.38
2023-03-03T05:45:59.242Z,21.83
2023-03-03T05:49:02.466Z,24.70
2023-03-03T05:52:04.737Z,26.95
2023-03-03T05:55:07.257Z,25.42
2023-03-03T05:58:09.588Z,25.80
2023-03-03T06:01:12.373Z,24.85
2023-03-03T06:04:14.839Z,25.13
2023-03-03T06:07:17.091Z,25.52
2023-03-03T06:10:19.329Z,26.02
2023-03-03T06:13:25.568Z,30.77
2023-03-03T06:16:27.521Z,30.30
2023-03-03T06:19:30.400Z,20.23
2023-03-03T06:22:34.440Z,25.00
2023-03-03T06:25:36.428Z,26.95
2023-03-03T06:28:38.409Z,23.83
2023-03-03T06:31:40.389Z,32.30
2023-03-03T06:34:42.303Z,28.08
2023-03-03T06:37:44.472Z,30.33
2023-03-03T06:40:47.300Z,27.50
2023-03-03T06:43:49.349Z,24.80
2023-03-03T06:46:51.253Z,28.45
2023-03-03T06:49:53.224Z,26.27
2023-03-03T06:53:16.010Z,25.95
2023-03-03T06:56:19.961Z,27.23
2023-03-03T06:59:22.521Z,27.75
2023-03-03T07:02:24.719Z,15.60
2023-03-03T07:05:29.099Z,16.52
2023-03-03T07:08:32.537Z,27.00
2023-03-03T07:11:37.318Z,26.67
2023-03-03T07:15:12.798Z,27.63
2023-03-03T07:18:30.114Z,28.67
2023-03-03T07:21:36.454Z,27.58
2023-03-03T07:24:41.777Z,26.73
2023-03-03T07:27:44.226Z,27.95
2023-03-03T07:30:46.472Z,30.67
2023-03-03T07:33:48.457Z,29.30
2023-03-03T07:36:54.327Z,30.48
2023-03-03T07:39:57.001Z,30.85
2023-03-03T07:42:59.170Z,32.22
2023-03-03T07:46:10.731Z,30.48
2023-03-03T07:49:36.098Z,29.98
2023-03-03T07:52:43.435Z,27.02
2023-03-03T07:55:45.946Z,27.42
2023-03-03T07:58:48.443Z,26.48
2023-03-03T08:01:56.691Z,27.20
2023-03-03T08:04:58.805Z,26.30
2023-03-03T08:08:32.803Z,23.58
2023-03-03T08:11:34.907Z,23.40
2023-03-03T08:14:38.872Z,22.02
2023-03-03T08:17:43.494Z,22.25
2023-03-03T08:20:48.271Z,21.95
2023-03-03T08:23:51.916Z,14.63
2023-03-03T08:26:54.049Z,14.48
2023-03-03T08:29:56.199Z,13.27
2023-03-03T08:32:58.455Z,14.55
2023-03-03T08:36:01.148Z,18.75
2023-03-03T08:39:05.184Z,18.67
2023-03-03T08:42:07.168Z,20.85
2023-03-03T08:45:10.154Z,19.77
2023-03-03T08:48:12.556Z,20.38
2023-03-03T08:51:20.320Z,21.13
2023-03-03T08:54:22.517Z,21.52
2023-03-03T08:57:24.925Z,18.73
2023-03-03T09:00:27.178Z,16.17
2023-03-03T09:03:30.042Z,18.65
2023-03-03T09:06:32.170Z,12.60
2023-03-03T09:09:34.183Z,12.80
2023-03-03T09:13:04.230Z,8.32
2023-03-03T09:16:17.084Z,11.25
2023-03-03T09:19:27.094Z,11.68
2023-03-03T09:22:29.880Z,13.80
2023-03-03T09:25:37.749Z,10.45
2023-03-03T09:28:39.910Z,8.98
2023-03-03T09:31:48.724Z,8.45
2023-03-03T09:34:50.856Z,7.75
2023-03-03T09:37:52.960Z,9.60
2023-03-03T09:40:57.798Z,9.02
2023-03-03T09:44:12.298Z,8.13
2023-03-03T09:47:39.727Z,7.95
2023-03-03T09:50:44.668Z,8.85
2023-03-03T09:54:09.180Z,8.43
2023-03-03T09:57:11.157Z,8.55
2023-03-03T10:00:18.999Z,10.57
2023-03-03T10:03:21.280Z,8.68
2023-03-03T10:06:39.310Z,9.52
2023-03-03T10:10:16.903Z,9.75
2023-03-03T10:13:37.682Z,10.88
2023-03-03T10:16:55.245Z,11.20
2023-03-03T10:20:18.484Z,9.73
2023-03-03T10:23:28.090Z,8.75
2023-03-03T10:27:11.706Z,10.35
2023-03-03T10:30:39.877Z,10.60
2023-03-03T10:37:21.166Z,10.40
2023-03-03T10:40:51.709Z,9.60
2023-03-03T10:44:11.184Z,10.20
2023-03-03T10:47:29.320Z,10.63
2023-03-03T10:50:54.507Z,9.88
2023-03-03T10:54:14.892Z,10.57
2023-03-03T10:57:31.946Z,8.85
2023-03-03T11:00:36.563Z,11.00
2023-03-03T11:04:08.733Z,9.48
2023-03-03T11:07:33.062Z,10.95
2023-03-03T11:11:10.128Z,9.82
2023-03-03T11:14:29.704Z,9.73
2023-03-03T11:17:52.818Z,9.95
2023-03-03T11:21:04.047Z,10.90
2023-03-03T11:24:35.482Z,12.18
2023-03-03T11:27:55.633Z,10.18
2023-03-03T11:31:25.683Z,11.32
2023-03-03T11:35:13.286Z,10.73
2023-03-03T11:38:40.135Z,10.00
2023-03-03T11:42:09.573Z,9.88
2023-03-03T11:45:20.170Z,9.40
2023-03-03T11:48:36.301Z,10.10
2023-03-03T11:51:43.982Z,9.20
2023-03-03T11:54:53.448Z,10.00
2023-03-03T11:58:16.691Z,10.38
2023-03-03T12:01:30.982Z,10.77
2023-03-03T12:04:39.791Z,11.30
2023-03-03T12:08:08.976Z,9.90
2023-03-03T12:11:26.070Z,8.95
2023-03-03T12:14:38.805Z,9.70
2023-03-03T12:17:55.678Z,8.63
2023-03-03T12:21:13.396Z,8.38
2023-03-03T12:24:21.492Z,9.15
2023-03-03T12:27:30.203Z,9.02
2023-03-03T12:31:02.944Z,9.82
2023-03-03T12:34:23.372Z,9.18
2023-03-03T12:37:47.222Z,10.07
2023-03-03T12:41:04.161Z,9.15
2023-03-03T12:44:21.517Z,9.15
2023-03-03T12:47:50.305Z,10.10
2023-03-03T12:51:24.594Z,10.17
2023-03-03T12:54:46.829Z,8.82
2023-03-03T12:57:57.704Z,9.07
2023-03-03T13:01:28.306Z,8.77
2023-03-03T13:04:42.825Z,7.63
2023-03-03T13:07:58.239Z,8.82
2023-03-03T13:11:09.546Z,8.23
2023-03-03T13:14:14.443Z,8.00
2023-03-03T13:17:16.732Z,8.93
2023-03-03T13:20:42.677Z,8.07
2023-03-03T13:24:28.700Z,9.25
2023-03-03T13:27:39.845Z,8.70
2023-03-03T13:30:49.024Z,9.25
2023-03-03T13:33:55.685Z,9.27
2023-03-03T13:37:05.437Z,7.80
2023-03-03T13:40:13.547Z,8.48
2023-03-03T13:43:20.901Z,9.38
2023-03-03T13:46:22.868Z,9.10
2023-03-03T13:49:30.633Z,9.05
2023-03-03T13:52:37.042Z,8.73
2023-03-03T13:56:01.904Z,9.10
2023-03-03T13:59:50.751Z,9.80
2023-03-03T14:03:20.145Z,9.35
2023-03-03T14:06:24.907Z,10.20
2023-03-03T14:09:56.945Z,9.57
2023-03-03T14:13:24.068Z,10.00
2023-03-03T14:16:47.286Z,10.82
2023-03-03T14:20:03.193Z,10.20
2023-03-03T14:23:16.830Z,9.98
2023-03-03T14:26:19.198Z,9.40
2023-03-03T14:29:32.355Z,9.95
2023-03-03T14:32:45.146Z,8.90
2023-03-03T14:36:11.791Z,10.68
2023-03-03T14:39:35.698Z,9.55
2023-03-03T14:42:50.629Z,9.50
2023-03-03T14:45:56.634Z,9.75
2023-03-03T14:49:01.159Z,8.43
2023-03-03T14:52:15.140Z,8.93
2023-03-03T14:55:36.222Z,10.07
2023-03-03T14:58:42.533Z,10.82
2023-03-03T15:01:45.312Z,9.90
2023-03-03T15:04:48.875Z,11.27
2023-03-03T15:07:57.553Z,10.93
2023-03-03T15:11:25.231Z,11.07
2023-03-03T15:14:30.731Z,10.10
2023-03-03T15:17:44.475Z,11.10
2023-03-03T15:21:13.709Z,11.48
2023-03-03T15:24:39.042Z,11.68
2023-03-03T15:28:08.372Z,13.18
2023-03-03T15:31:38.481Z,12.90
2023-03-03T15:34:49.081Z,11.80
2023-03-03T15:37:59.744Z,12.65
2023-03-03T15:41:24.972Z,12.98
2023-03-03T15:44:40.697Z,14.18
2023-03-03T15:47:53.340Z,10.95
2023-03-03T15:51:13.721Z,12.05
2023-03-03T15:54:52.658Z,12.77
2023-03-03T15:57:57.518Z,14.07
2023-03-03T16:01:16.416Z,15.10
2023-03-03T16:04:22.616Z,17.23
2023-03-03T16:07:37.794Z,11.60
2023-03-03T16:10:49.093Z,9.93
2023-03-03T16:14:32.677Z,8.90
2023-03-03T16:17:55.675Z,9.45
2023-03-03T16:21:11.843Z,10.30
2023-03-03T16:25:00.256Z,8.63
2023-03-03T16:28:25.066Z,9.45
2023-03-03T16:31:34.956Z,9.55
2023-03-03T16:34:42.385Z,9.55
2023-03-03T16:37:58.850Z,8.70
2023-03-03T16:41:03.587Z,12.25
2023-03-03T16:44:52.720Z,12.10
2023-03-03T16:47:57.724Z,11.57
2023-03-03T16:51:23.550Z,12.05
2023-03-03T16:54:55.841Z,12.73
2023-03-03T16:58:37.003Z,13.40
2023-03-03T17:01:43.564Z,14.60
2023-03-03T17:05:08.591Z,13.85
2023-03-03T17:08:53.011Z,12.57
2023-03-03T17:12:00.765Z,12.68
2023-03-03T17:15:21.396Z,13.93
2023-03-03T17:18:41.555Z,14.38
2023-03-03T17:22:07.319Z,13.65
2023-03-03T17:25:23.102Z,13.20
2023-03-03T17:28:40.343Z,13.30
2023-03-03T17:31:51.332Z,13.30
2023-03-03T17:35:11.906Z,13.80
2023-03-03T17:38:32.203Z,13.85
2023-03-03T17:41:49.354Z,14.63
2023-03-03T17:44:57.464Z,14.85
2023-03-03T17:48:27.284Z,15.70
2023-03-03T17:54:36.746Z,14.05
2023-03-03T17:58:09.381Z,14.27
2023-03-03T18:01:26.876Z,16.20
2023-03-03T18:05:15.621Z,16.77
2023-03-03T18:08:43.673Z,17.08
2023-03-03T18:12:26.659Z,18.40
2023-03-03T18:16:12.194Z,18.45
2023-03-03T18:19:56.749Z,19.63
2023-03-03T18:23:39.847Z,21.60
2023-03-03T18:26:42.715Z,19.08
2023-03-03T18:30:21.525Z,20.58
2023-03-03T18:34:01.745Z,18.23
2023-03-03T18:40:06.109Z,20.23
2023-03-03T18:43:45.137Z,23.10
2023-03-03T18:46:49.126Z,24.10
2023-03-03T18:49:57.673Z,23.38
2023-03-03T18:53:20.142Z,23.95
2023-03-03T18:56:45.487Z,22.15
2023-03-03T19:00:14.503Z,19.85
2023-03-03T19:03:31.229Z,23.67
2023-03-03T19:06:38.271Z,20.38
2023-03-03T19:09:57.259Z,22.45
2023-03-03T19:13:00.194Z,22.05
2023-03-03T19:16:07.952Z,21.83
2023-03-03T19:19:13.009Z,19.98
2023-03-03T19:22:32.924Z,21.05
2023-03-03T19:25:35.893Z,21.23
2023-03-03T19:28:50.379Z,20.73
2023-03-03T19:32:13.918Z,24.15
2023-03-03T19:35:34.891Z,22.13
2023-03-03T19:43:09.445Z,22.13
2023-03-03T19:46:41.026Z,22.20
2023-03-03T19:50:05.358Z,21.73
2023-03-03T19:53:59.986Z,21.05
2023-03-03T19:57:05.502Z,20.27
2023-03-03T20:00:28.701Z,21.90
2023-03-03T20:04:04.370Z,21.58
2023-03-03T20:07:43.790Z,21.52
2023-03-03T20:10:45.806Z,21.80
2023-03-03T20:14:01.970Z,21.05
2023-03-03T20:17:25.168Z,20.25
2023-03-03T20:20:36.108Z,19.95
2023-03-03T20:23:50.143Z,20.42
2023-03-03T20:27:10.508Z,19.08
2023-03-03T20:30:45.329Z,19.40
2023-03-03T20:33:56.295Z,19.25
2023-03-03T20:37:34.459Z,17.85
2023-03-03T20:40:50.499Z,17.15
2023-03-03T20:44:21.591Z,19.23
2023-03-03T20:47:38.574Z,18.98
2023-03-03T20:51:10.134Z,18.45
2023-03-03T20:54:47.871Z,18.52
2023-03-03T20:57:59.140Z,19.48
2023-03-03T21:01:08.599Z,17.63
2023-03-03T21:04:22.755Z,18.75
2023-03-03T21:07:26.556Z,18.63
2023-03-03T21:10:37.978Z,20.73
2023-03-03T21:13:45.437Z,21.17
2023-03-03T21:16:48.865Z,19.30
2023-03-03T21:19:54.289Z,19.30
2023-03-03T21:22:57.948Z,18.63
2023-03-03T21:26:00.248Z,17.20
2023-03-03T21:29:03.580Z,19.48
2023-03-03T21:32:09.442Z,19.65
2023-03-03T21:35:15.225Z,19.83
2023-03-03T21:38:39.588Z,17.90
2023-03-03T21:42:13.160Z,18.92
2023-03-03T21:45:17.389Z,19.40
2023-03-03T21:48:20.542Z,18.02
2023-03-03T21:51:24.476Z,18.88
2023-03-03T21:54:26.926Z,16.30
2023-03-03T21:57:29.072Z,20.17
2023-03-03T22:00:32.875Z,17.30
2023-03-03T22:03:35.756Z,18.20
2023-03-03T22:06:37.935Z,20.65
2023-03-03T22:09:40.034Z,17.08
2023-03-03T22:12:42.066Z,17.63
2023-03-03T22:15:44.086Z,20.35
2023-03-03T22:18:46.159Z,17.75
2023-03-03T22:21:49.856Z,20.30
2023-03-03T22:24:52.009Z,20.08
2023-03-03T22:27:54.102Z,16.75
2023-03-03T22:30:57.043Z,18.40
2023-03-03T22:33:59.500Z,19.77
2023-03-03T22:37:01.606Z,19.92
2023-03-03T22:40:04.088Z,19.30
2023-03-03T22:43:10.892Z,19.00
2023-03-03T22:46:13.013Z,19.13
2023-03-03T22:49:15.099Z,20.25
2023-03-03T22:52:17.107Z,18.08
2023-03-03T22:55:19.249Z,18.10
2023-03-03T22:58:25.489Z,18.85
2023-03-03T23:01:27.741Z,18.38
2023-03-03T23:04:29.889Z,18.83
2023-03-03T23:07:31.944Z,18.92
2023-03-03T23:10:34.543Z,18.77
2023-03-03T23:13:36.626Z,20.10
2023-03-03T23:16:38.673Z,19.08
2023-03-03T23:19:40.813Z,17.30
2023-03-03T23:22:42.769Z,17.48
2023-03-03T23:25:44.823Z,16.73
2023-03-03T23:28:46.979Z,18.50
2023-03-03T23:31:48.974Z,17.92
2023-03-03T23:34:54.223Z,18.15
2023-03-03T23:37:56.271Z,19.40
2023-03-03T23:40:58.319Z,19.20
2023-03-03T23:44:00.404Z,18.80
2023-03-03T23:47:02.495Z,18.23
2023-03-03T23:50:05.050Z,18.30
2023-03-03T23:53:07.998Z,18.50
2023-03-03T23:56:10.107Z,19.33
2023-03-03T23:59:12.184Z,18.80
